Lynden Pindling International Airport
MYNN : now visible

Airfield :











YOU CAN JOIN US ON...

 
LOGIN :

Register | Disclaimer

   EN    FR    IT 

 









Legend :    VFR   Marginal VFR   IFR   Intensive IFR   Very Intensive IFR
Visi :
Ceiling :
>= 8 km
>= 3000ft
5 to 8 km
1000 to 3000 ft
1500m to 5 km
500 to 1000 ft
800 to 1500m
200 to 500 ft
< 800m
< 200 ft
Symbols :   Thunderstorms  Fog  Heavy snow  Heavy precipitations  Wind > 20 kt






- Airport Elevation : 16 ft
- IATA code : NAS


MYNN - Lynden Pindling International

CURRENT METAR :
  • 050000Z 22004KT 190V250 9999 SCT020 BKN200 29/23 A2996

EXPIRED METARs :
  • 042300Z 21004KT 180V250 9999 FEW018CB BKN200 30/23 A2994
  • 042200Z 23008KT 210V270 9999 VCSH SCT018CB SCT040 BKN200 30/24 A2995

TAF MYNN
Valid from the 05 at 00:00 until the 06 at 00:00 UTC


042145Z 0500/0524 VRB02KT 9999 SCT025 BKN220
TEMPO
PROB40 0509/0514 8000 SHRA FEW016CB BKN018 FM 051200 17008KT 9999 SCT018CB SCT030
MYNA FIR / North America



MET'MAP, your aeronautical weather chart ! - Copyright ORBIFLY December 2007 - Disclaimer

ORBIFLY MET'MAP TEAM :

Programming & Development : Alexandra Zaïnal
Concept & original design : Baudouin d'Aumeries
Assistance for programming : Marc-Olivier Méhu
Technical & hardware support : Manuel Goepfert

Contact : metmap@orbifly.com




SOURCES & CREDITS :

   NOAA       Earth
Advisory